Resia Pass

LIVE · Tyrol, 意大利

罗盘
风向 的 风向 030°
风: 3 kt, 1 beaufort

添加一条跑道以查看侧风和逆风信息。

添置 跑道
0 1.000 2.000 3.000 4.000 5.000
OVC 2.000 ft
METAR LIVE 020055Z 03003KT 9999 -RA OVC020 08/06 Q1022 RMK OVC VIS MIN 9999

METAR Resia Pass - LIVE

Resia Pass是普丰德斯,意大利中的未知。 该领域的国际民航组织标志是LIVE.

这份报告是针对2022年10月2日 02:55, 当地时间在Resia Pass进行的。

机场观察

风向为030°,速度为3 kt。

可见度为10 km 或者更多。

有乌云密布在2.000 ft的高度。 破损或更高的上限为2.000 ft。

当前天气为光 雨。 温度为8 °C,阵风为6 °C。 露点为6 °C,相对湿度为87%。 海平面上的气压为1022 hPa (QNH)。

白天

今天,太阳从07:18升起,在18:56降落。 这适用于Resia Pass,世界夏令时可能有所不同。 当地时间与世界标准时间之间的时差为+2 小时。 夏令时目前正在进行中。

公司介绍

我们没有关于这个机场的公司信息。

体会

到Vliegles.nl去找飞行课程,跳伞和其他飞行体验。 浏览页面,了解Resia Pass附近所有可用的活动。 你也可以使用搜索功能来寻找你所在地附近的特定飞行课程、跳伞或其他飞行体验。

乌云

2.000 ft OVC 乌云密布

温度 & 天气

天气 光 雨
温度 8 °C
露点 6 °C
相对湿度 87%
风寒 6 °C
Kp-index 2 (0-9)

评论

OVC VIS MIN 9999

白天

日出
07:18 (2h 32m)
中午
13:07
日落
18:56

小工具

你想在你的网站上有一个关于Resia Pass的当前航空天气(METAR)的小部件吗?

</> 显示HTML代码

我们和第三方通过cookies跟踪您在我们网站上的上网行为。如果您继续,我们认为您同意我们的cookie政策。 了解更多